createdAt,value
2018-03-08T00:00:56.147Z,66.89
2018-03-08T00:01:56.163Z,66.89
2018-03-08T00:02:55.885Z,66.89
2018-03-08T00:03:56.179Z,66.8
2018-03-08T00:04:55.911Z,66.33
2018-03-08T00:05:55.919Z,67.08
2018-03-08T00:06:56.260Z,66.33
2018-03-08T00:07:55.940Z,66.99
2018-03-08T00:08:55.950Z,67.08
2018-03-08T00:09:56.241Z,67.27
2018-03-08T00:10:55.972Z,67.08
2018-03-08T00:11:55.990Z,66.61
2018-03-08T00:12:55.991Z,66.89
2018-03-08T00:13:56.002Z,66.61
2018-03-08T00:14:56.012Z,67.08
2018-03-08T00:15:56.022Z,67.27
2018-03-08T00:16:56.324Z,67.08
2018-03-08T00:17:56.326Z,66.89
2018-03-08T00:18:56.336Z,67.27
2018-03-08T00:19:56.347Z,66.8
2018-03-08T00:20:56.357Z,66.71
2018-03-08T00:21:56.086Z,66.61
2018-03-08T00:22:56.378Z,66.52
2018-03-08T00:23:56.391Z,66.61
2018-03-08T00:24:56.399Z,66.71
2018-03-08T00:25:56.413Z,66.52
2018-03-08T00:26:56.426Z,67.27
2018-03-08T00:27:56.431Z,67.27
2018-03-08T00:28:56.159Z,66.89
2018-03-08T00:29:56.452Z,66.8
2018-03-08T00:30:56.188Z,67.08
2018-03-08T00:31:56.473Z,66.99
2018-03-08T00:32:56.494Z,66.99
2018-03-08T00:33:56.494Z,66.89
2018-03-08T00:34:56.510Z,66.52
2018-03-08T00:35:56.561Z,66.61
2018-03-08T00:36:56.582Z,66.52
2018-03-08T00:37:56.541Z,66.71
2018-03-08T00:38:56.268Z,66.33
2018-03-08T00:39:56.276Z,66.52
2018-03-08T00:40:56.573Z,66.89
2018-03-08T00:41:56.577Z,66.89
2018-03-08T00:42:56.586Z,66.52
2018-03-08T00:43:56.602Z,66.61
2018-03-08T00:44:56.612Z,66.61
2018-03-08T00:45:56.342Z,66.99
2018-03-08T00:46:56.636Z,67.08
2018-03-08T00:47:56.644Z,66.71
2018-03-08T00:48:56.371Z,66.42
2018-03-08T00:49:56.661Z,66.61
2018-03-08T00:50:56.390Z,66.33
2018-03-08T00:51:56.687Z,66.71
2018-03-08T00:52:56.412Z,66.52
2018-03-08T00:53:56.423Z,66.99
2018-03-08T00:54:56.715Z,66.89
2018-03-08T00:55:56.442Z,67.56
2018-03-08T00:56:56.458Z,67.56
2018-03-08T00:57:56.744Z,67.08
2018-03-08T00:58:56.761Z,67.18
2018-03-08T00:59:56.484Z,67.37
2018-03-08T01:00:56.494Z,67.56
2018-03-08T01:01:56.505Z,67.08
2018-03-08T01:02:56.799Z,67.08
2018-03-08T01:03:56.529Z,67.46
2018-03-08T01:04:56.820Z,67.27
2018-03-08T01:05:56.548Z,67.08
2018-03-08T01:06:56.842Z,67.46
2018-03-08T01:07:56.852Z,67.37
2018-03-08T01:08:56.860Z,67.18
2018-03-08T01:09:56.590Z,66.61
2018-03-08T01:10:56.883Z,66.89
2018-03-08T01:11:56.659Z,67.37
2018-03-08T01:12:56.620Z,67.08
2018-03-08T01:13:56.917Z,66.89
2018-03-08T01:14:56.949Z,66.89
2018-03-08T01:15:56.653Z,67.18
2018-03-08T01:16:56.948Z,66.8
2018-03-08T01:17:56.676Z,66.71
2018-03-08T01:18:56.978Z,66.99
2018-03-08T01:19:56.979Z,66.89
2018-03-08T01:20:56.986Z,66.89
2018-03-08T01:21:57.001Z,66.61
2018-03-08T01:22:57.012Z,67.08
2018-03-08T01:23:57.020Z,66.71
2018-03-08T01:24:56.752Z,66.42
2018-03-08T01:25:57.049Z,66.42
2018-03-08T01:26:57.053Z,66.52
2018-03-08T01:27:56.781Z,66.99
2018-03-08T01:28:57.079Z,66.52
2018-03-08T01:29:56.800Z,66.61
2018-03-08T01:30:57.092Z,66.99
2018-03-08T01:31:56.821Z,66.52
2018-03-08T01:32:57.113Z,66.42
2018-03-08T01:33:56.841Z,66.61
2018-03-08T01:34:57.136Z,66.8
2018-03-08T01:35:57.148Z,66.8
2018-03-08T01:36:57.155Z,66.33
2018-03-08T01:37:57.166Z,66.8
2018-03-08T01:38:57.175Z,66.42
2018-03-08T01:39:56.923Z,66.8
2018-03-08T01:40:57.199Z,66.33
2018-03-08T01:41:57.241Z,66.42
2018-03-08T01:42:57.224Z,66.61
2018-03-08T01:43:56.947Z,66.8
2018-03-08T01:44:57.237Z,67.08
2018-03-08T01:45:57.254Z,66.61
2018-03-08T01:46:56.978Z,66.42
2018-03-08T01:47:57.272Z,66.61
2018-03-08T01:48:57.279Z,66.89
2018-03-08T01:49:57.292Z,66.89
2018-03-08T01:50:57.303Z,66.99
2018-03-08T01:51:57.031Z,67.08
2018-03-08T01:52:57.421Z,67.08
2018-03-08T01:53:57.335Z,67.08
2018-03-08T01:54:57.347Z,66.33
2018-03-08T01:55:57.076Z,66.71
2018-03-08T01:56:57.100Z,66.61
2018-03-08T01:57:57.379Z,66.71
2018-03-08T01:58:57.385Z,67.08
2018-03-08T01:59:57.115Z,66.61
2018-03-08T02:00:57.130Z,66.89
2018-03-08T02:01:57.424Z,67.08
2018-03-08T02:02:57.146Z,66.89
2018-03-08T02:03:57.439Z,66.52
2018-03-08T02:04:57.451Z,66.52
2018-03-08T02:05:57.461Z,67.08
2018-03-08T02:06:57.471Z,66.89
2018-03-08T02:07:57.530Z,67.08
2018-03-08T02:08:57.210Z,66.99
2018-03-08T02:09:57.513Z,66.89
2018-03-08T02:10:57.230Z,66.89
2018-03-08T02:11:57.522Z,66.89
2018-03-08T02:12:57.582Z,66.42
2018-03-08T02:13:57.542Z,67.18
2018-03-08T02:14:57.274Z,67.08
2018-03-08T02:15:57.567Z,66.71
2018-03-08T02:16:57.581Z,66.89
2018-03-08T02:17:57.639Z,67.08
2018-03-08T02:18:57.596Z,66.71
2018-03-08T02:19:57.326Z,66.8
2018-03-08T02:20:57.619Z,66.71
2018-03-08T02:21:57.626Z,66.89
2018-03-08T02:22:57.642Z,66.23
2018-03-08T02:23:57.366Z,66.71
2018-03-08T02:24:57.657Z,66.89
2018-03-08T02:25:57.394Z,66.52
2018-03-08T02:26:57.396Z,66.99
2018-03-08T02:27:57.409Z,67.08
2018-03-08T02:28:57.700Z,67.08
2018-03-08T02:29:57.429Z,66.89
2018-03-08T02:30:57.726Z,66.99
2018-03-08T02:31:57.456Z,66.52
2018-03-08T02:32:57.752Z,66.8
2018-03-08T02:33:57.754Z,67.08
2018-03-08T02:34:57.766Z,67.18
2018-03-08T02:35:57.780Z,67.37
2018-03-08T02:36:57.787Z,67.08
2018-03-08T02:37:57.846Z,67.08
2018-03-08T02:38:57.526Z,67.08
2018-03-08T02:39:57.820Z,67.56
2018-03-08T02:40:57.544Z,67.56
2018-03-08T02:41:57.837Z,67.18
2018-03-08T02:42:57.853Z,66.99
2018-03-08T02:43:57.864Z,67.37
2018-03-08T02:44:57.877Z,67.37
2018-03-08T02:45:57.882Z,67.46
2018-03-08T02:46:57.606Z,67.37
2018-03-08T02:47:57.901Z,67.37
2018-03-08T02:48:57.628Z,67.56
2018-03-08T02:49:57.638Z,67.18
2018-03-08T02:50:57.654Z,67.37
2018-03-08T02:51:57.664Z,67.46
2018-03-08T02:52:57.955Z,67.85
2018-03-08T02:53:57.978Z,67.85
2018-03-08T02:54:57.974Z,67.65
2018-03-08T02:55:57.714Z,67.75
2018-03-08T02:56:57.998Z,67.56
2018-03-08T02:57:58.006Z,68.32
2018-03-08T02:58:58.024Z,67.46
2018-03-08T02:59:58.023Z,67.37
2018-03-08T03:00:58.037Z,67.37
2018-03-08T03:01:58.058Z,67.46
2018-03-08T03:02:58.065Z,67.56
2018-03-08T03:03:58.072Z,67.37
2018-03-08T03:04:58.086Z,67.56
2018-03-08T03:05:58.091Z,67.37
2018-03-08T03:06:58.098Z,67.65
2018-03-08T03:07:58.113Z,67.46
2018-03-08T03:08:58.122Z,67.65
2018-03-08T03:09:58.348Z,67.46
2018-03-08T03:10:58.145Z,67.56
2018-03-08T03:11:57.868Z,67.46
2018-03-08T03:12:58.214Z,67.94
2018-03-08T03:13:58.175Z,68.32
2018-03-08T03:14:58.181Z,68.6
2018-03-08T03:15:57.911Z,68.32
2018-03-08T03:16:58.205Z,68.32
2018-03-08T03:17:58.266Z,68.32
2018-03-08T03:18:58.226Z,68.32
2018-03-08T03:19:57.953Z,67.94
2018-03-08T03:20:57.968Z,67.94
2018-03-08T03:21:57.972Z,68.32
2018-03-08T03:22:58.367Z,67.85
2018-03-08T03:23:58.276Z,67.75
2018-03-08T03:24:58.324Z,68.13
2018-03-08T03:25:58.016Z,67.56
2018-03-08T03:26:58.309Z,68.13
2018-03-08T03:27:58.320Z,68.32
2018-03-08T03:28:58.047Z,68.23
2018-03-08T03:29:58.057Z,67.85
2018-03-08T03:30:58.363Z,67.94
2018-03-08T03:31:58.097Z,67.94
2018-03-08T03:32:58.093Z,67.75
2018-03-08T03:33:58.380Z,67.75
2018-03-08T03:34:58.392Z,68.04
2018-03-08T03:35:58.125Z,67.85
2018-03-08T03:36:58.129Z,68.23
2018-03-08T03:37:58.475Z,68.13
2018-03-08T03:38:58.153Z,68.41
2018-03-08T03:39:58.447Z,68.32
2018-03-08T03:40:58.174Z,68.6
2018-03-08T03:41:58.216Z,68.32
2018-03-08T03:42:58.479Z,68.32
2018-03-08T03:43:58.490Z,68.32
2018-03-08T03:44:58.503Z,68.32
2018-03-08T03:45:58.513Z,68.23
2018-03-08T03:46:58.518Z,68.23
2018-03-08T03:47:58.529Z,68.32
2018-03-08T03:48:58.541Z,68.32
2018-03-08T03:49:58.268Z,68.32
2018-03-08T03:50:58.563Z,68.32
2018-03-08T03:51:58.573Z,68.32
2018-03-08T03:52:58.630Z,68.32
2018-03-08T03:53:58.592Z,68.32
2018-03-08T03:54:58.609Z,68.32
2018-03-08T03:55:58.333Z,67.94
2018-03-08T03:56:58.625Z,68.6
2018-03-08T03:57:58.353Z,68.23
2018-03-08T03:58:58.646Z,68.6
2018-03-08T03:59:58.655Z,68.51
2018-03-08T04:00:58.667Z,68.41
2018-03-08T04:01:58.392Z,68.7
2018-03-08T04:02:58.404Z,68.32
2018-03-08T04:03:58.418Z,67.94
2018-03-08T04:04:58.426Z,68.13
2018-03-08T04:05:58.435Z,68.32
2018-03-08T04:06:58.728Z,68.23
2018-03-08T04:07:58.746Z,68.32
2018-03-08T04:08:58.754Z,68.04
2018-03-08T04:09:58.768Z,68.32
2018-03-08T04:10:58.488Z,67.75
2018-03-08T04:11:58.784Z,68.13
2018-03-08T04:12:58.558Z,68.51
2018-03-08T04:13:58.806Z,68.41
2018-03-08T04:14:58.811Z,67.94
2018-03-08T04:15:58.541Z,68.32
2018-03-08T04:16:58.553Z,68.13
2018-03-08T04:17:58.563Z,68.32
2018-03-08T04:18:58.855Z,68.32
2018-03-08T04:19:58.584Z,68.13
2018-03-08T04:20:58.882Z,68.32
2018-03-08T04:21:58.885Z,68.98
2018-03-08T04:22:58.910Z,68.79
2018-03-08T04:23:58.624Z,68.32
2018-03-08T04:24:58.920Z,68.32
2018-03-08T04:25:58.935Z,68.98
2018-03-08T04:26:58.944Z,69.17
2018-03-08T04:27:58.948Z,68.32
2018-03-08T04:28:58.973Z,68.32
2018-03-08T04:29:58.690Z,68.32
2018-03-08T04:30:58.699Z,68.41
2018-03-08T04:31:58.993Z,68.51
2018-03-08T04:32:59.000Z,68.32
2018-03-08T04:33:59.018Z,67.94
2018-03-08T04:34:59.046Z,68.23
2018-03-08T04:35:59.225Z,67.85
2018-03-08T04:36:58.762Z,68.6
2018-03-08T04:37:59.105Z,68.6
2018-03-08T04:38:58.784Z,68.51
2018-03-08T04:39:59.078Z,68.41
2018-03-08T04:40:58.806Z,68.41
2018-03-08T04:41:58.818Z,68.13
2018-03-08T04:42:58.831Z,68.7
2018-03-08T04:43:58.835Z,68.98
2018-03-08T04:44:58.847Z,68.79
2018-03-08T04:45:59.150Z,68.79
2018-03-08T04:46:59.158Z,68.98
2018-03-08T04:47:59.162Z,68.98
2018-03-08T04:48:59.220Z,68.79
2018-03-08T04:49:59.183Z,68.89
2018-03-08T04:50:59.195Z,68.98
2018-03-08T04:51:59.206Z,68.89
2018-03-08T04:52:59.266Z,68.89
2018-03-08T04:53:58.943Z,68.89
2018-03-08T04:54:59.247Z,68.79
2018-03-08T04:55:58.962Z,68.98
2018-03-08T04:56:59.260Z,68.98
2018-03-08T04:57:59.271Z,69.08
2018-03-08T04:58:59.282Z,69.08
2018-03-08T04:59:59.029Z,69.46
2018-03-08T05:00:59.019Z,68.98
2018-03-08T05:01:59.027Z,69.36
2018-03-08T05:02:59.336Z,69.17
2018-03-08T05:03:59.335Z,68.98
2018-03-08T05:04:59.342Z,69.36
2018-03-08T05:05:59.079Z,69.08
2018-03-08T05:06:59.377Z,69.17
2018-03-08T05:07:59.376Z,68.89
2018-03-08T05:08:59.388Z,68.98
2018-03-08T05:09:59.394Z,69.08
2018-03-08T05:10:59.128Z,68.98
2018-03-08T05:11:59.415Z,68.79
2018-03-08T05:12:59.427Z,68.98
2018-03-08T05:13:59.438Z,69.08
2018-03-08T05:14:59.449Z,69.08
2018-03-08T05:15:59.177Z,69.46
2018-03-08T05:16:59.186Z,68.7
2018-03-08T05:17:59.481Z,68.7
2018-03-08T05:18:59.494Z,68.89
2018-03-08T05:19:59.510Z,68.7
2018-03-08T05:20:59.517Z,69.27
2018-03-08T05:21:59.528Z,69.17
2018-03-08T05:22:59.540Z,68.89
2018-03-08T05:23:59.543Z,69.08
2018-03-08T05:24:59.556Z,69.36
2018-03-08T05:25:59.565Z,68.98
2018-03-08T05:26:59.294Z,69.17
2018-03-08T05:27:59.588Z,69.08
2018-03-08T05:28:59.316Z,69.08
2018-03-08T05:29:59.608Z,69.46
2018-03-08T05:30:59.618Z,68.89
2018-03-08T05:31:59.629Z,68.98
2018-03-08T05:32:59.639Z,68.98
2018-03-08T05:33:59.368Z,68.98
2018-03-08T05:34:59.664Z,68.89
2018-03-08T05:35:59.672Z,69.08
2018-03-08T05:36:59.398Z,68.79
2018-03-08T05:37:59.411Z,69.17
2018-03-08T05:38:59.704Z,69.27
2018-03-08T05:39:59.739Z,69.17
2018-03-08T05:40:59.724Z,69.36
2018-03-08T05:41:59.743Z,69.27
2018-03-08T05:42:59.464Z,68.98
2018-03-08T05:43:59.473Z,69.08
2018-03-08T05:44:59.764Z,69.17
2018-03-08T05:45:59.780Z,68.98
2018-03-08T05:46:59.790Z,69.08
2018-03-08T05:47:59.801Z,69.08
2018-03-08T05:48:59.812Z,68.79
2018-03-08T05:49:59.534Z,68.89
2018-03-08T05:50:59.828Z,69.27
2018-03-08T05:51:59.841Z,68.79
2018-03-08T05:52:59.853Z,68.89
2018-03-08T05:53:59.577Z,69.27
2018-03-08T05:54:59.588Z,69.17
2018-03-08T05:55:59.884Z,69.36
2018-03-08T05:56:59.898Z,69.93
2018-03-08T05:57:59.904Z,70.12
2018-03-08T05:58:59.913Z,70.21
2018-03-08T05:59:59.646Z,69.65
2018-03-08T06:00:59.934Z,70.21
2018-03-08T06:01:59.663Z,69.74
2018-03-08T06:02:59.956Z,70.12
2018-03-08T06:03:59.687Z,69.84
2018-03-08T06:04:59.693Z,69.74
2018-03-08T06:05:59.987Z,70.03
2018-03-08T06:06:59.998Z,70.12
2018-03-08T06:08:00.009Z,70.12
2018-03-08T06:09:00.022Z,70.31
2018-03-08T06:10:00.029Z,70.5
2018-03-08T06:11:00.042Z,70.5
2018-03-08T06:12:00.060Z,70.69
2018-03-08T06:13:00.063Z,70.69
2018-03-08T06:14:00.075Z,70.31
2018-03-08T06:15:00.085Z,69.93
2018-03-08T06:16:00.097Z,70.12
2018-03-08T06:17:00.106Z,70.03
2018-03-08T06:17:59.834Z,70.5
2018-03-08T06:19:00.064Z,70.31
2018-03-08T06:20:00.137Z,70.31
2018-03-08T06:21:00.156Z,70.31
2018-03-08T06:22:00.158Z,70.59
2018-03-08T06:23:00.175Z,70.69
2018-03-08T06:24:00.180Z,70.69
2018-03-08T06:24:59.906Z,70.44
2018-03-08T06:26:00.201Z,70.44
2018-03-08T06:27:00.210Z,70.35
2018-03-08T06:28:00.223Z,70.5
2018-03-08T06:29:00.235Z,70.54
2018-03-08T06:29:59.975Z,71.07
2018-03-08T06:31:00.264Z,71.3
2018-03-08T06:32:00.276Z,70.92
2018-03-08T06:33:00.276Z,70.92
2018-03-08T06:34:00.002Z,70.73
2018-03-08T06:35:00.302Z,69.96
2018-03-08T06:36:00.312Z,70.15
2018-03-08T06:37:00.046Z,70.06
2018-03-08T06:38:00.101Z,69.78
2018-03-08T06:39:00.423Z,69.96
2018-03-08T06:40:00.349Z,69.78
2018-03-08T06:41:00.360Z,69.87
2018-03-08T06:42:00.372Z,70.25
2018-03-08T06:43:00.102Z,69.68
2018-03-08T06:44:00.447Z,69.87
2018-03-08T06:45:00.402Z,70.06
2018-03-08T06:46:00.135Z,70.15
2018-03-08T06:47:00.431Z,70.35
2018-03-08T06:48:00.450Z,70.35
2018-03-08T06:49:00.447Z,70.25
2018-03-08T06:50:00.466Z,70.92
2018-03-08T06:51:00.188Z,71.01
2018-03-08T06:52:00.326Z,70.54
2018-03-08T06:53:00.210Z,70.15
2018-03-08T06:54:00.561Z,70.06
2018-03-08T06:55:00.517Z,70.06
2018-03-08T06:56:00.239Z,70.25
2018-03-08T06:57:00.251Z,70.25
2018-03-08T06:58:00.544Z,69.96
2018-03-08T06:59:00.556Z,70.06
2018-03-08T07:00:00.584Z,70.15
2018-03-08T07:01:00.293Z,70.06
2018-03-08T07:02:00.592Z,70.06
2018-03-08T07:03:00.595Z,69.78
2018-03-08T07:04:00.608Z,69.59
2018-03-08T07:05:00.339Z,69.96
2018-03-08T07:06:00.348Z,69.87
2018-03-08T07:07:00.645Z,70.25
2018-03-08T07:08:00.378Z,70.44
2018-03-08T07:09:00.666Z,70.35
2018-03-08T07:10:00.396Z,70.35
2018-03-08T07:11:00.686Z,71.01
2018-03-08T07:12:00.699Z,70.63
2018-03-08T07:13:00.716Z,70.54
2018-03-08T07:14:00.727Z,70.54
2018-03-08T07:15:00.730Z,70.35
2018-03-08T07:16:00.465Z,70.54
2018-03-08T07:17:00.751Z,71.11
2018-03-08T07:18:00.762Z,71.01
2018-03-08T07:19:00.775Z,71.11
2018-03-08T07:20:00.786Z,70.63
2018-03-08T07:21:00.983Z,70.35
2018-03-08T07:22:00.521Z,71.01
2018-03-08T07:23:00.816Z,71.01
2018-03-08T07:24:00.834Z,71.01
2018-03-08T07:25:00.835Z,70.82
2018-03-08T07:26:00.846Z,70.25
2018-03-08T07:27:00.856Z,70.73
2018-03-08T07:28:00.869Z,70.73
2018-03-08T07:29:00.879Z,70.54
2018-03-08T07:30:00.897Z,70.73
2018-03-08T07:31:00.903Z,70.82
2018-03-08T07:32:00.915Z,70.63
2018-03-08T07:33:00.641Z,70.54
2018-03-08T07:34:00.938Z,70.73
2018-03-08T07:35:00.994Z,70.73
2018-03-08T07:36:00.959Z,70.73
2018-03-08T07:37:00.967Z,70.44
2018-03-08T07:38:00.699Z,70.25
2018-03-08T07:39:00.992Z,70.25
2018-03-08T07:40:01.001Z,70.63
2018-03-08T07:41:01.022Z,70.35
2018-03-08T07:42:00.741Z,70.06
2018-03-08T07:43:01.034Z,70.44
2018-03-08T07:44:01.050Z,69.87
2018-03-08T07:45:01.127Z,70.15
2018-03-08T07:46:01.067Z,70.44
2018-03-08T07:47:01.076Z,69.87
2018-03-08T07:48:00.816Z,69.78
2018-03-08T07:49:01.102Z,70.35
2018-03-08T07:50:01.110Z,70.35
2018-03-08T07:51:01.124Z,70.73
2018-03-08T07:52:01.139Z,70.25
2018-03-08T07:53:01.144Z,70.06
2018-03-08T07:54:00.875Z,69.71
2018-03-08T07:55:01.179Z,69.91
2018-03-08T07:56:01.226Z,69.91
2018-03-08T07:57:00.908Z,70.1
2018-03-08T07:58:01.201Z,70.1
2018-03-08T07:59:01.212Z,70
2018-03-08T08:00:00.950Z,69.53
2018-03-08T08:01:01.237Z,69.71
2018-03-08T08:02:01.245Z,69.24
2018-03-08T08:03:01.260Z,69.34
2018-03-08T08:04:01.269Z,69.05
2018-03-08T08:05:01.282Z,69.05
2018-03-08T08:06:01.300Z,69.15
2018-03-08T08:07:01.345Z,69.24
2018-03-08T08:08:01.319Z,69.24
2018-03-08T08:09:01.327Z,68.86
2018-03-08T08:10:01.338Z,68.86
2018-03-08T08:11:01.350Z,68.48
2018-03-08T08:12:01.077Z,69.05
2018-03-08T08:13:01.088Z,68.96
2018-03-08T08:14:01.390Z,68.19
2018-03-08T08:15:01.161Z,68.19
2018-03-08T08:16:01.409Z,68.48
2018-03-08T08:17:01.417Z,68.19
2018-03-08T08:18:01.147Z,67.91
2018-03-08T08:19:01.156Z,67.63
2018-03-08T08:20:01.450Z,68.01
2018-03-08T08:21:01.531Z,68.19
2018-03-08T08:22:01.501Z,68.01
2018-03-08T08:23:01.202Z,68.01
2018-03-08T08:24:01.501Z,67.44
2018-03-08T08:25:01.513Z,67.63
2018-03-08T08:26:01.236Z,67.63
2018-03-08T08:27:01.531Z,67.15
2018-03-08T08:28:01.259Z,67.06
2018-03-08T08:29:01.559Z,67.53
2018-03-08T08:30:01.573Z,67.72
2018-03-08T08:31:01.579Z,67.15
2018-03-08T08:32:01.589Z,66.96
2018-03-08T08:33:01.319Z,66.77
2018-03-08T08:34:01.612Z,66.58
2018-03-08T08:35:01.622Z,66.77
2018-03-08T08:36:01.353Z,67.44
2018-03-08T08:37:01.646Z,67.72
2018-03-08T08:38:01.661Z,67.25
2018-03-08T08:39:01.674Z,67.44
2018-03-08T08:40:01.397Z,67.19
2018-03-08T08:41:01.692Z,66.9
2018-03-08T08:42:01.421Z,67.28
2018-03-08T08:43:01.436Z,66.9
2018-03-08T08:44:01.734Z,66.61
2018-03-08T08:45:01.739Z,66.71
2018-03-08T08:46:01.472Z,66.8
2018-03-08T08:47:01.763Z,66.24
2018-03-08T08:48:01.797Z,66.71
2018-03-08T08:49:01.501Z,67.09
2018-03-08T08:50:01.800Z,66.52
2018-03-08T08:51:01.530Z,66.61
2018-03-08T08:52:01.821Z,66.33
2018-03-08T08:53:01.833Z,66.42
2018-03-08T08:54:01.854Z,66.24
2018-03-08T08:55:01.856Z,66.14
2018-03-08T08:56:01.867Z,66.42
2018-03-08T08:57:01.599Z,66.9
2018-03-08T08:58:01.895Z,66.61
2018-03-08T08:59:01.908Z,65.86
2018-03-08T09:00:01.925Z,65.19
2018-03-08T09:01:01.644Z,65.47
2018-03-08T09:02:01.677Z,65.47
2018-03-08T09:03:01.956Z,65.95
2018-03-08T09:04:01.679Z,65.86
2018-03-08T09:05:01.690Z,65.95
2018-03-08T09:06:01.707Z,65.67
2018-03-08T09:07:01.715Z,65.28
2018-03-08T09:08:01.730Z,65.76
2018-03-08T09:09:02.026Z,65.47
2018-03-08T09:10:01.752Z,65.47
2018-03-08T09:11:02.049Z,65.86
2018-03-08T09:12:02.059Z,65.67
2018-03-08T09:13:02.073Z,65.19
2018-03-08T09:14:01.801Z,65.28
2018-03-08T09:15:02.094Z,65.38
2018-03-08T09:16:02.107Z,65
2018-03-08T09:17:02.119Z,65
2018-03-08T09:18:02.130Z,65
2018-03-08T09:19:02.151Z,64.34
2018-03-08T09:20:02.178Z,64.14
2018-03-08T09:21:02.249Z,64.62
2018-03-08T09:22:02.186Z,64.62
2018-03-08T09:23:02.197Z,64.05
2018-03-08T09:24:02.204Z,63.95
2018-03-08T09:25:02.217Z,63.76
2018-03-08T09:26:02.274Z,64.05
2018-03-08T09:27:01.957Z,63.7
2018-03-08T09:28:02.247Z,63.42
2018-03-08T09:29:02.259Z,63.6
2018-03-08T09:30:01.991Z,63.51
2018-03-08T09:31:02.289Z,63.32
2018-03-08T09:32:02.299Z,63.23
2018-03-08T09:33:02.314Z,63.13
2018-03-08T09:34:02.327Z,62.81
2018-03-08T09:35:02.336Z,62.62
2018-03-08T09:36:02.352Z,62.94
2018-03-08T09:37:02.357Z,62.75
2018-03-08T09:38:02.368Z,62.34
2018-03-08T09:39:02.098Z,62.56
2018-03-08T09:40:02.394Z,62.43
2018-03-08T09:41:02.405Z,62.08
2018-03-08T09:42:02.425Z,62.56
2018-03-08T09:43:02.146Z,62.08
2018-03-08T09:44:02.156Z,62.56
2018-03-08T09:45:02.469Z,62.75
2018-03-08T09:46:02.524Z,62.27
2018-03-08T09:47:02.205Z,62.46
2018-03-08T09:48:02.494Z,62.37
2018-03-08T09:49:02.503Z,62.56
2018-03-08T09:50:02.518Z,61.9
2018-03-08T09:51:02.295Z,61.8
2018-03-08T09:52:02.543Z,61.8
2018-03-08T09:53:02.557Z,61.8
2018-03-08T09:54:02.572Z,62.37
2018-03-08T09:55:02.583Z,61.99
2018-03-08T09:56:02.590Z,61.61
2018-03-08T09:57:02.317Z,61.9
2018-03-08T09:58:02.618Z,61.42
2018-03-08T09:59:02.358Z,61.52
2018-03-08T10:00:02.353Z,61.52
2018-03-08T10:01:02.650Z,61.71
2018-03-08T10:02:02.659Z,61.23
2018-03-08T10:03:02.391Z,61.32
2018-03-08T10:04:02.693Z,60.75
2018-03-08T10:05:02.700Z,61.23
2018-03-08T10:06:02.438Z,60.57
2018-03-08T10:07:02.720Z,60.75
2018-03-08T10:08:02.738Z,60.97
2018-03-08T10:09:02.753Z,60.88
2018-03-08T10:10:02.756Z,60.88
2018-03-08T10:11:02.775Z,60.69
2018-03-08T10:12:02.788Z,60.5
2018-03-08T10:13:02.794Z,60.31
2018-03-08T10:14:02.814Z,60.6
2018-03-08T10:15:02.825Z,60.69
2018-03-08T10:16:02.836Z,60.69
2018-03-08T10:17:02.842Z,60.02
2018-03-08T10:18:02.571Z,59.93
2018-03-08T10:19:02.869Z,59.74
2018-03-08T10:20:02.606Z,59.64
2018-03-08T10:21:02.610Z,59.45
2018-03-08T10:22:02.916Z,59.55
2018-03-08T10:23:02.917Z,59.55
2018-03-08T10:24:02.647Z,59.74
2018-03-08T10:25:02.944Z,59.45
2018-03-08T10:26:02.670Z,59.17
2018-03-08T10:27:02.737Z,58.88
2018-03-08T10:28:02.988Z,58.69
2018-03-08T10:29:03.104Z,58.88
2018-03-08T10:30:03.005Z,58.72
2018-03-08T10:31:03.016Z,58.81
2018-03-08T10:32:02.745Z,58.72
2018-03-08T10:33:02.762Z,58.81
2018-03-08T10:34:03.055Z,59.01
2018-03-08T10:35:03.066Z,58.34
2018-03-08T10:36:02.864Z,58.34
2018-03-08T10:37:03.089Z,58.34
2018-03-08T10:38:03.126Z,58.62
2018-03-08T10:39:03.113Z,58.62
2018-03-08T10:40:03.130Z,58.44
2018-03-08T10:41:03.378Z,57.67
2018-03-08T10:42:02.894Z,57.77
2018-03-08T10:43:03.166Z,57.67
2018-03-08T10:44:03.195Z,57.67
2018-03-08T10:45:02.909Z,57.48
2018-03-08T10:46:03.208Z,57.77
2018-03-08T10:47:03.215Z,57.77
2018-03-08T10:48:02.947Z,57.87
2018-03-08T10:49:02.960Z,57.67
2018-03-08T10:50:02.996Z,57.39
2018-03-08T10:51:02.986Z,57.42
2018-03-08T10:52:02.997Z,56.94
2018-03-08T10:53:03.293Z,56.94
2018-03-08T10:54:03.041Z,57.23
2018-03-08T10:55:03.036Z,56.94
2018-03-08T10:56:03.329Z,57.04
2018-03-08T10:57:03.061Z,57.13
2018-03-08T10:58:03.105Z,56.94
2018-03-08T10:59:03.371Z,57.13
2018-03-08T11:00:03.247Z,56.56
2018-03-08T11:01:03.214Z,56.85
2018-03-08T11:02:03.414Z,56.37
2018-03-08T11:03:03.187Z,56.18
2018-03-08T11:04:03.173Z,56.37
2018-03-08T11:05:03.450Z,56.37
2018-03-08T11:06:03.194Z,56.09
2018-03-08T11:07:03.191Z,55.92
2018-03-08T11:08:03.498Z,55.83
2018-03-08T11:09:03.219Z,55.83
2018-03-08T11:10:03.237Z,55.92
2018-03-08T11:11:03.244Z,55.92
2018-03-08T11:12:03.561Z,56.4
2018-03-08T11:13:03.560Z,55.73
2018-03-08T11:14:03.306Z,55.92
2018-03-08T11:15:03.295Z,55.83
2018-03-08T11:16:03.611Z,54.97
2018-03-08T11:17:03.606Z,55.44
2018-03-08T11:18:03.338Z,55.44
2018-03-08T11:19:03.638Z,55.26
2018-03-08T11:20:03.382Z,55.07
2018-03-08T11:21:03.377Z,54.97
2018-03-08T11:22:03.680Z,55.26
2018-03-08T11:23:03.687Z,54.78
2018-03-08T11:24:03.702Z,54.68
2018-03-08T11:25:03.714Z,55.16
2018-03-08T11:26:03.451Z,55.28
2018-03-08T11:27:03.456Z,54.9
2018-03-08T11:28:03.756Z,54.9
2018-03-08T11:29:03.765Z,54.8
2018-03-08T11:30:03.806Z,55
2018-03-08T11:31:03.795Z,55.19
2018-03-08T11:32:03.814Z,54.33
2018-03-08T11:33:03.834Z,54.43
2018-03-08T11:34:03.552Z,54.8
2018-03-08T11:35:03.856Z,54.33
2018-03-08T11:36:03.873Z,53.69
2018-03-08T11:37:03.594Z,54.04
2018-03-08T11:38:03.898Z,54.07
2018-03-08T11:39:05.217Z,53.59
2018-03-08T11:40:05.266Z,53.97
2018-03-08T11:41:04.358Z,53.59
2018-03-08T11:42:03.951Z,53.78
2018-03-08T11:43:03.967Z,54.36
2018-03-08T11:44:03.992Z,53.88
2018-03-08T11:45:03.994Z,53.69
2018-03-08T11:46:03.720Z,53.02
2018-03-08T11:47:04.713Z,52.83
2018-03-08T11:48:04.032Z,52.73
2018-03-08T11:49:04.050Z,53.21
2018-03-08T11:50:04.060Z,52.36
2018-03-08T11:51:04.073Z,52.55
2018-03-08T11:52:04.090Z,52.55
2018-03-08T11:53:04.102Z,53.21
2018-03-08T11:54:04.118Z,52.92
2018-03-08T11:55:04.130Z,52.64
2018-03-08T11:56:04.147Z,52.64
2018-03-08T11:57:04.160Z,52.73
2018-03-08T11:58:04.176Z,52.55
2018-03-08T11:59:03.907Z,52.55
2018-03-08T12:00:04.211Z,52.83
2018-03-08T12:01:04.222Z,52.55
2018-03-08T12:02:04.240Z,52.45
2018-03-08T12:03:03.964Z,52.55
2018-03-08T12:04:04.260Z,52.64
2018-03-08T12:05:03.994Z,52.45
2018-03-08T12:06:04.297Z,52.45
2018-03-08T12:07:04.305Z,53.02
2018-03-08T12:08:04.321Z,52.57
2018-03-08T12:09:04.341Z,52.76
2018-03-08T12:10:04.347Z,53.24
2018-03-08T12:11:04.468Z,53.33
2018-03-08T12:12:04.093Z,52.38
2018-03-08T12:13:04.394Z,53.14
2018-03-08T12:14:04.409Z,53.05
2018-03-08T12:15:04.421Z,52.76
2018-03-08T12:16:04.444Z,52.57
2018-03-08T12:17:04.641Z,52.48
2018-03-08T12:18:04.536Z,52.76
2018-03-08T12:19:04.197Z,52.57
2018-03-08T12:20:04.516Z,53.05
2018-03-08T12:21:04.227Z,52.95
2018-03-08T12:22:04.523Z,52.67
2018-03-08T12:23:04.536Z,52.57
2018-03-08T12:24:04.558Z,52.38
2018-03-08T12:25:04.568Z,52.09
2018-03-08T12:26:04.593Z,52.48
2018-03-08T12:27:04.599Z,51.9
2018-03-08T12:28:04.652Z,52.48
2018-03-08T12:29:04.650Z,52.09
2018-03-08T12:30:04.645Z,52
2018-03-08T12:31:04.674Z,52
2018-03-08T12:32:04.672Z,52.09
2018-03-08T12:33:04.687Z,51.81
2018-03-08T12:34:04.702Z,51.9
2018-03-08T12:35:04.435Z,51.81
2018-03-08T12:36:04.733Z,51.64
2018-03-08T12:37:04.753Z,51.26
2018-03-08T12:38:04.764Z,50.88
2018-03-08T12:39:04.785Z,50.69
2018-03-08T12:40:04.796Z,50.31
2018-03-08T12:41:04.810Z,50.49
2018-03-08T12:42:04.822Z,50.49
2018-03-08T12:43:04.839Z,49.93
2018-03-08T12:44:04.854Z,49.73
2018-03-08T12:45:04.584Z,50.02
2018-03-08T12:46:04.884Z,50.21
2018-03-08T12:47:04.898Z,49.64
2018-03-08T12:48:04.632Z,49.44
2018-03-08T12:49:04.929Z,49.44
2018-03-08T12:50:04.661Z,49.35
2018-03-08T12:51:04.960Z,49.83
2018-03-08T12:52:05.024Z,49.64
2018-03-08T12:53:04.993Z,48.97
2018-03-08T12:54:05.005Z,49.16
2018-03-08T12:55:04.739Z,49.16